Time;durP1;ratioP1;P1;durP2;ratioP2;P2;SDS_P1;SDS_P2;PMS_P1;PMS_P2;Temp;Humidity;BMP_temperature;BMP_pressure;BME280_temperature;BME280_humidity;BME280_pressure;Samples;Min_cycle;Max_cycle;Signal;HPM_P1;HPM_P2
2021/09/10 00:00:39;;;;;;;18.83;15.50;;;20.00;99.90;;;;;;5048684;28;20444;-64
2021/09/10 00:03:05;;;;;;;18.20;16.13;;;20.00;99.90;;;;;;5045740;28;20768;-65
2021/09/10 00:05:32;;;;;;;19.53;15.37;;;20.00;99.90;;;;;;5050800;28;20456;-65
2021/09/10 00:07:59;;;;;;;17.33;15.60;;;20.00;99.90;;;;;;5043074;28;20494;-65
2021/09/10 00:10:25;;;;;;;17.50;15.57;;;20.00;99.90;;;;;;5034400;28;20441;-65
2021/09/10 00:12:55;;;;;;;17.17;15.43;;;20.00;99.90;;;;;;5033733;28;20479;-65
2021/09/10 00:15:24;;;;;;;16.43;14.90;;;20.10;99.90;;;;;;5046800;28;20451;-65
2021/09/10 00:17:51;;;;;;;18.73;15.47;;;20.20;99.90;;;;;;5035657;28;20449;-65
2021/09/10 00:20:17;;;;;;;17.47;15.67;;;20.20;99.90;;;;;;5034343;28;20460;-66
2021/09/10 00:22:44;;;;;;;18.40;16.27;;;20.20;99.90;;;;;;5033957;28;20472;-65
2021/09/10 00:25:11;;;;;;;16.23;14.73;;;20.20;99.90;;;;;;5040669;28;20443;-66
2021/09/10 00:27:38;;;;;;;18.70;16.80;;;20.20;99.90;;;;;;5046797;28;20452;-66
2021/09/10 00:30:07;;;;;;;18.10;16.40;;;20.20;99.90;;;;;;5050695;28;21258;-65
2021/09/10 00:32:35;;;;;;;17.83;15.00;;;20.20;99.90;;;;;;5050017;28;20480;-64
2021/09/10 00:35:03;;;;;;;19.30;15.90;;;20.20;99.90;;;;;;5046243;28;20949;-64
2021/09/10 00:37:30;;;;;;;20.23;17.23;;;20.20;99.90;;;;;;5047501;28;20463;-66
2021/09/10 00:39:57;;;;;;;17.23;15.07;;;20.30;99.90;;;;;;5034996;28;20477;-65
2021/09/10 00:42:24;;;;;;;20.43;15.47;;;20.30;99.90;;;;;;5033422;28;20468;-66
2021/09/10 00:44:50;;;;;;;18.73;16.30;;;20.30;99.90;;;;;;5033701;28;20920;-64
2021/09/10 00:47:18;;;;;;;16.87;15.33;;;20.30;99.90;;;;;;5037197;28;20464;-65
2021/09/10 00:49:46;;;;;;;21.33;16.90;;;20.30;99.90;;;;;;5048394;28;20531;-64
2021/09/10 00:52:13;;;;;;;16.57;14.97;;;20.40;99.90;;;;;;5040008;28;20984;-64
2021/09/10 00:54:40;;;;;;;18.90;15.57;;;20.40;99.90;;;;;;5041352;28;20452;-66
2021/09/10 00:57:07;;;;;;;15.83;14.23;;;20.40;99.90;;;;;;5033561;28;20449;-65
2021/09/10 00:59:33;;;;;;;19.60;15.33;;;20.40;99.90;;;;;;5041753;28;21001;-64
2021/09/10 01:02:01;;;;;;;14.00;12.20;;;20.40;99.90;;;;;;5043658;28;20829;-66
2021/09/10 01:04:31;;;;;;;15.53;14.13;;;20.40;99.90;;;;;;5046002;28;20441;-66
2021/09/10 01:07:00;;;;;;;13.90;12.63;;;20.30;99.90;;;;;;5047685;28;20455;-64
2021/09/10 01:09:28;;;;;;;14.23;12.80;;;20.40;99.90;;;;;;5036195;28;20454;-66
2021/09/10 01:11:55;;;;;;;14.40;13.10;;;20.40;99.90;;;;;;5032894;28;21016;-65
2021/09/10 01:14:22;;;;;;;15.13;13.53;;;20.30;99.90;;;;;;5040326;28;20445;-64
2021/09/10 01:16:50;;;;;;;13.67;12.00;;;20.30;99.90;;;;;;5033116;28;20449;-65
2021/09/10 01:19:22;;;;;;;18.37;12.60;;;20.30;99.90;;;;;;5036057;28;20476;-65
2021/09/10 01:21:52;;;;;;;14.27;12.73;;;20.20;99.90;;;;;;5042278;28;20469;-65
2021/09/10 01:24:29;;;;;;;13.77;11.70;;;20.20;99.90;;;;;;5038219;28;20436;-65
2021/09/10 01:26:56;;;;;;;13.50;12.30;;;20.20;99.90;;;;;;5032622;28;20812;-67
2021/09/10 01:29:23;;;;;;;13.30;12.00;;;20.20;99.90;;;;;;5048373;28;20440;-65
2021/09/10 01:31:50;;;;;;;14.37;12.90;;;20.20;99.90;;;;;;5048101;28;20460;-66
2021/09/10 01:34:16;;;;;;;14.70;13.17;;;20.20;99.90;;;;;;5036496;28;20444;-66
2021/09/10 01:36:43;;;;;;;13.43;12.20;;;20.10;99.90;;;;;;5048673;28;20440;-65
2021/09/10 01:39:10;;;;;;;12.97;11.73;;;20.00;99.90;;;;;;5035579;28;20476;-64
2021/09/10 01:41:38;;;;;;;11.33;10.10;;;20.00;99.90;;;;;;5036208;28;20447;-66
2021/09/10 01:44:05;;;;;;;13.27;11.87;;;20.00;99.90;;;;;;5042852;28;20445;-65
2021/09/10 01:46:32;;;;;;;13.77;10.67;;;19.90;99.90;;;;;;5051371;28;20471;-66
2021/09/10 01:48:58;;;;;;;11.70;10.67;;;19.90;99.90;;;;;;5044741;28;20449;-66
2021/09/10 01:51:30;;;;;;;13.90;12.60;;;19.90;99.90;;;;;;5032881;28;20445;-66
2021/09/10 01:53:56;;;;;;;16.13;14.53;;;19.90;99.90;;;;;;5032913;28;20472;-66
2021/09/10 01:56:23;;;;;;;15.27;12.33;;;20.00;99.90;;;;;;5043046;28;20460;-65
2021/09/10 01:58:51;;;;;;;15.20;13.80;;;20.00;99.90;;;;;;5051866;28;20484;-63
2021/09/10 02:01:22;;;;;;;15.00;13.67;;;20.00;99.90;;;;;;5052224;28;20937;-65
2021/09/10 02:03:49;;;;;;;14.83;13.40;;;20.00;99.90;;;;;;5052360;28;20807;-65
2021/09/10 02:06:16;;;;;;;16.37;14.60;;;20.00;99.90;;;;;;5042828;28;20445;-65
2021/09/10 02:08:42;;;;;;;16.87;15.20;;;20.00;99.90;;;;;;5032458;28;20448;-64
2021/09/10 02:11:09;;;;;;;16.07;14.57;;;20.00;99.90;;;;;;5032260;28;20448;-65
2021/09/10 02:13:36;;;;;;;15.80;14.13;;;20.00;99.90;;;;;;5032151;28;20978;-65
2021/09/10 02:16:04;;;;;;;15.93;14.53;;;20.00;99.90;;;;;;5039472;28;20448;-64
2021/09/10 02:18:31;;;;;;;16.70;13.27;;;20.00;99.90;;;;;;5052000;28;20455;-66
2021/09/10 02:20:58;;;;;;;13.80;12.50;;;20.00;99.90;;;;;;5051908;28;20448;-66
2021/09/10 02:23:24;;;;;;;14.40;12.90;;;19.90;99.90;;;;;;5051996;28;20535;-66
2021/09/10 02:25:55;;;;;;;17.03;14.70;;;19.90;99.90;;;;;;5032362;28;20449;-64
2021/09/10 02:28:21;;;;;;;14.10;12.73;;;19.90;99.90;;;;;;5032220;28;20445;-65
2021/09/10 02:30:48;;;;;;;14.80;13.43;;;19.90;99.90;;;;;;5032168;28;20444;-65
2021/09/10 02:33:16;;;;;;;14.73;13.37;;;19.90;99.90;;;;;;5031585;28;20475;-65
2021/09/10 02:35:44;;;;;;;16.43;14.40;;;19.80;99.90;;;;;;5049169;28;20448;-66
2021/09/10 02:38:11;;;;;;;15.57;13.97;;;19.80;99.90;;;;;;5051761;28;20479;-65
2021/09/10 02:40:38;;;;;;;17.10;15.50;;;19.80;99.90;;;;;;5051690;28;20476;-64
2021/09/10 02:43:05;;;;;;;13.37;12.23;;;19.80;99.90;;;;;;5051402;28;20471;-65
2021/09/10 02:45:32;;;;;;;15.23;13.83;;;19.70;99.90;;;;;;5035438;28;20843;-66
2021/09/10 02:47:59;;;;;;;15.40;13.93;;;19.70;99.90;;;;;;5031712;28;20448;-65
2021/09/10 02:50:27;;;;;;;14.97;13.47;;;19.70;99.90;;;;;;5031685;28;20437;-66
2021/09/10 02:52:54;;;;;;;16.47;14.87;;;19.60;99.90;;;;;;5031344;28;20476;-65
2021/09/10 02:55:21;;;;;;;16.30;14.80;;;19.60;99.90;;;;;;5045683;28;20453;-64
2021/09/10 02:57:48;;;;;;;19.90;16.00;;;19.60;99.90;;;;;;5051422;28;20451;-66
2021/09/10 03:00:15;;;;;;;15.77;14.37;;;19.50;99.90;;;;;;5051313;28;20478;-66
2021/09/10 03:02:42;;;;;;;18.07;15.53;;;19.40;99.90;;;;;;5051063;28;20518;-66
2021/09/10 03:05:10;;;;;;;22.27;16.10;;;19.40;99.90;;;;;;5038658;28;20448;-65
2021/09/10 03:07:38;;;;;;;17.63;15.80;;;19.40;99.90;;;;;;5031487;28;20480;-66
2021/09/10 03:10:07;;;;;;;19.73;17.93;;;19.40;99.90;;;;;;5030626;28;20812;-66
2021/09/10 03:12:35;;;;;;;19.17;17.40;;;19.40;99.90;;;;;;5030689;28;21017;-65
2021/09/10 03:15:03;;;;;;;17.67;16.10;;;19.30;99.90;;;;;;5042538;28;20448;-65
2021/09/10 03:17:30;;;;;;;17.20;15.77;;;19.40;99.90;;;;;;5050888;28;20897;-65
2021/09/10 03:19:57;;;;;;;19.60;16.57;;;19.30;99.90;;;;;;5051182;28;20553;-65
2021/09/10 03:22:23;;;;;;;19.13;17.30;;;19.40;99.90;;;;;;5050906;28;20463;-64
2021/09/10 03:24:51;;;;;;;18.40;16.70;;;19.30;99.90;;;;;;5041452;28;20456;-65
2021/09/10 03:27:18;;;;;;;19.30;17.40;;;19.30;99.90;;;;;;5031261;28;20452;-64
2021/09/10 03:29:45;;;;;;;21.40;16.97;;;19.30;99.90;;;;;;5031285;28;20437;-66
2021/09/10 03:32:12;;;;;;;19.23;17.50;;;19.30;99.90;;;;;;5030832;28;20827;-66
2021/09/10 03:34:38;;;;;;;19.93;17.67;;;19.20;99.90;;;;;;5038820;28;20441;-66
2021/09/10 03:37:06;;;;;;;19.53;17.47;;;19.20;99.90;;;;;;5051150;28;20921;-66
2021/09/10 03:39:33;;;;;;;18.60;16.80;;;19.20;99.90;;;;;;5051010;28;20480;-65
2021/09/10 03:42:01;;;;;;;18.40;16.40;;;19.20;99.90;;;;;;5050679;28;20832;-65
2021/09/10 03:44:28;;;;;;;18.93;17.03;;;19.20;99.90;;;;;;5044658;28;20457;-66
2021/09/10 03:46:55;;;;;;;18.97;17.00;;;19.20;99.90;;;;;;5031003;28;20456;-65
2021/09/10 03:49:21;;;;;;;18.37;16.40;;;19.20;99.90;;;;;;5031129;28;20441;-66
2021/09/10 03:51:48;;;;;;;21.30;19.10;;;19.10;99.90;;;;;;5030751;28;20441;-67
2021/09/10 03:54:15;;;;;;;20.93;18.77;;;19.10;99.90;;;;;;5034516;28;20992;-67
2021/09/10 03:56:41;;;;;;;26.67;18.87;;;19.10;99.90;;;;;;5050986;28;20463;-65
2021/09/10 03:59:09;;;;;;;19.70;17.70;;;19.00;99.90;;;;;;5050887;28;20444;-66
2021/09/10 04:01:36;;;;;;;23.87;18.93;;;19.00;99.90;;;;;;5050438;28;20455;-65
2021/09/10 04:04:03;;;;;;;24.03;21.17;;;19.00;99.90;;;;;;5034901;28;20449;-67
2021/09/10 04:06:29;;;;;;;23.73;19.97;;;18.90;99.90;;;;;;5030776;28;20441;-65
2021/09/10 04:08:56;;;;;;;27.43;21.93;;;18.90;99.90;;;;;;5030878;28;20452;-65
2021/09/10 04:11:23;;;;;;;25.73;21.37;;;18.90;99.90;;;;;;5030660;28;20445;-65
2021/09/10 04:13:49;;;;;;;25.43;20.97;;;19.00;99.90;;;;;;5043601;28;20479;-66
2021/09/10 04:16:18;;;;;;;26.23;21.30;;;19.00;99.90;;;;;;5049046;28;20447;-65
2021/09/10 04:18:44;;;;;;;23.70;21.13;;;19.00;99.90;;;;;;5034290;28;20457;-65
2021/09/10 04:21:11;;;;;;;35.00;22.03;;;19.10;99.90;;;;;;5031769;28;21015;-65
2021/09/10 04:23:38;;;;;;;22.57;20.40;;;19.10;99.90;;;;;;5034349;28;20465;-65
2021/09/10 04:26:04;;;;;;;26.50;23.23;;;19.10;99.90;;;;;;5034650;28;20449;-63
2021/09/10 04:28:31;;;;;;;23.60;21.40;;;19.10;99.90;;;;;;5043906;28;20823;-65
2021/09/10 04:30:58;;;;;;;24.33;22.03;;;19.10;99.90;;;;;;5054198;28;20444;-65
2021/09/10 04:33:26;;;;;;;28.07;22.87;;;19.20;99.90;;;;;;5054155;28;20463;-64
2021/09/10 04:35:52;;;;;;;24.23;21.70;;;19.20;99.90;;;;;;5054053;28;20447;-65
2021/09/10 04:38:19;;;;;;;21.30;19.30;;;19.20;99.90;;;;;;5045909;28;20472;-64
2021/09/10 04:40:46;;;;;;;25.17;22.47;;;19.20;99.90;;;;;;5033830;28;20485;-65
2021/09/10 04:43:13;;;;;;;28.83;21.70;;;19.20;99.90;;;;;;5033700;28;20978;-65
2021/09/10 04:45:39;;;;;;;20.60;18.50;;;19.30;99.90;;;;;;5043552;28;20976;-64
2021/09/10 04:48:07;;;;;;;22.03;19.83;;;19.20;99.90;;;;;;5049682;28;20459;-64
2021/09/10 04:50:36;;;;;;;31.60;20.23;;;19.20;99.90;;;;;;5051852;28;20472;-65
2021/09/10 04:53:02;;;;;;;23.80;20.57;;;19.10;99.90;;;;;;5051333;28;20487;-65
2021/09/10 04:55:29;;;;;;;21.13;19.13;;;19.10;99.90;;;;;;5051742;28;20796;-65
2021/09/10 04:57:56;;;;;;;24.63;22.23;;;19.00;99.90;;;;;;5052016;28;20471;-63
2021/09/10 05:00:22;;;;;;;26.57;23.97;;;19.00;99.90;;;;;;5052985;28;20843;-65
2021/09/10 05:02:49;;;;;;;23.47;20.67;;;18.90;99.90;;;;;;5053538;28;20460;-65
2021/09/10 05:05:16;;;;;;;28.57;22.47;;;18.90;99.90;;;;;;5053628;28;20444;-64
2021/09/10 05:07:44;;;;;;;26.57;22.67;;;18.90;99.90;;;;;;5053623;28;20440;-65
2021/09/10 05:10:11;;;;;;;23.87;21.40;;;18.80;99.90;;;;;;5053621;28;20445;-65
2021/09/10 05:12:38;;;;;;;25.70;23.10;;;18.80;99.90;;;;;;5053241;28;20495;-64
2021/09/10 05:15:06;;;;;;;23.67;21.17;;;18.70;99.90;;;;;;5053454;28;20447;-63
2021/09/10 05:17:32;;;;;;;23.77;21.17;;;18.80;99.90;;;;;;5053521;28;20444;-63
2021/09/10 05:20:00;;;;;;;23.30;20.87;;;18.80;99.90;;;;;;5053340;28;20487;-64
2021/09/10 05:22:27;;;;;;;25.17;22.80;;;18.70;99.90;;;;;;5053168;28;20468;-65
2021/09/10 05:24:55;;;;;;;23.50;21.10;;;18.70;99.90;;;;;;5053305;28;20455;-64
2021/09/10 05:27:22;;;;;;;22.10;19.83;;;18.80;99.90;;;;;;5053357;28;20444;-64
2021/09/10 05:29:49;;;;;;;24.23;21.70;;;18.80;99.90;;;;;;5053006;28;20485;-64
2021/09/10 05:32:16;;;;;;;28.23;21.43;;;18.80;99.90;;;;;;5051981;28;21023;-64
2021/09/10 05:34:42;;;;;;;22.63;20.33;;;18.80;99.90;;;;;;5053413;28;20836;-65
2021/09/10 05:37:09;;;;;;;23.43;20.90;;;18.80;99.90;;;;;;5053140;28;20456;-65
2021/09/10 05:39:36;;;;;;;22.27;19.90;;;18.80;99.90;;;;;;5053020;28;20448;-64
2021/09/10 05:42:04;;;;;;;23.27;20.97;;;18.90;99.90;;;;;;5052648;28;20468;-65
2021/09/10 05:44:31;;;;;;;22.93;20.57;;;18.90;99.90;;;;;;5052946;28;20899;-65
2021/09/10 05:46:57;;;;;;;23.80;19.40;;;18.90;99.90;;;;;;5052893;28;20448;-65
2021/09/10 05:49:24;;;;;;;20.33;18.40;;;18.90;99.90;;;;;;5052825;28;20444;-65
2021/09/10 05:51:51;;;;;;;24.63;21.07;;;19.00;99.90;;;;;;5052482;28;20460;-65
2021/09/10 05:54:18;;;;;;;21.53;19.33;;;19.10;99.90;;;;;;5052804;28;20475;-65
2021/09/10 05:56:44;;;;;;;20.10;18.10;;;19.10;99.90;;;;;;5052752;28;20902;-64
2021/09/10 05:59:12;;;;;;;20.67;18.60;;;19.20;99.90;;;;;;5052541;28;20945;-64
2021/09/10 06:01:39;;;;;;;20.10;18.13;;;19.30;99.90;;;;;;5052343;28;20480;-64
2021/09/10 06:04:06;;;;;;;22.50;20.07;;;19.40;99.90;;;;;;5052498;28;20452;-65
2021/09/10 06:06:32;;;;;;;20.93;18.70;;;19.50;99.90;;;;;;5052558;28;20448;-65
2021/09/10 06:08:59;;;;;;;20.03;18.03;;;19.60;99.90;;;;;;5052484;28;20436;-64
2021/09/10 06:11:26;;;;;;;19.47;17.57;;;19.70;99.90;;;;;;5052303;28;20855;-64
2021/09/10 06:13:52;;;;;;;18.00;16.30;;;19.80;99.90;;;;;;5052242;28;20571;-65
2021/09/10 06:16:20;;;;;;;16.70;15.17;;;20.00;99.90;;;;;;5052456;28;20493;-63
2021/09/10 06:18:47;;;;;;;18.00;16.40;;;20.20;99.90;;;;;;5052242;28;20446;-65
2021/09/10 06:21:14;;;;;;;16.93;15.33;;;20.30;99.90;;;;;;5052044;28;20475;-65
2021/09/10 06:23:41;;;;;;;18.30;16.57;;;20.50;99.90;;;;;;5052135;28;20965;-66
2021/09/10 06:26:08;;;;;;;15.50;14.00;;;20.70;99.90;;;;;;5052182;28;20817;-64
2021/09/10 06:28:35;;;;;;;14.00;12.60;;;20.80;99.90;;;;;;5052127;28;20444;-64
2021/09/10 06:31:02;;;;;;;15.80;13.60;;;20.90;99.90;;;;;;5051971;28;20474;-63
2021/09/10 06:33:30;;;;;;;15.10;13.90;;;21.20;99.90;;;;;;5051964;28;20560;-65
2021/09/10 06:35:56;;;;;;;18.40;13.70;;;21.40;99.90;;;;;;5052037;28;20945;-65
2021/09/10 06:38:23;;;;;;;12.87;11.87;;;21.50;99.90;;;;;;5051983;28;20448;-65
2021/09/10 06:40:50;;;;;;;13.50;12.30;;;21.80;99.90;;;;;;5051686;28;20479;-63
2021/09/10 06:43:16;;;;;;;13.00;11.70;;;22.00;99.90;;;;;;5051449;28;20825;-65
2021/09/10 06:45:44;;;;;;;12.47;11.33;;;22.20;99.90;;;;;;5051758;28;20955;-66
2021/09/10 06:48:11;;;;;;;12.53;11.50;;;22.40;99.90;;;;;;5051801;28;20450;-66
2021/09/10 06:50:39;;;;;;;12.27;11.17;;;22.60;99.90;;;;;;5051634;28;20437;-65
2021/09/10 06:53:07;;;;;;;10.97;9.93;;;22.90;99.90;;;;;;5051501;28;20464;-65
2021/09/10 06:55:34;;;;;;;11.43;10.50;;;23.10;99.90;;;;;;5051616;28;20459;-65
2021/09/10 06:58:00;;;;;;;11.37;10.43;;;23.20;99.90;;;;;;5051508;28;20444;-66
2021/09/10 07:00:28;;;;;;;10.70;9.90;;;23.40;99.90;;;;;;5051408;28;20479;-65
2021/09/10 07:02:54;;;;;;;11.73;10.73;;;23.40;99.90;;;;;;5051234;28;20872;-66
2021/09/10 07:05:21;;;;;;;12.37;11.37;;;23.40;99.90;;;;;;5051692;28;20434;-64
2021/09/10 07:07:51;;;;;;;13.50;12.50;;;23.20;99.90;;;;;;5051631;28;20444;-65
2021/09/10 07:10:18;;;;;;;11.43;10.53;;;23.20;99.90;;;;;;5051427;28;20448;-65
2021/09/10 07:12:45;;;;;;;10.97;10.17;;;23.10;99.90;;;;;;5051045;28;20529;-66
2021/09/10 07:15:12;;;;;;;13.00;11.90;;;23.10;99.90;;;;;;5051534;28;20443;-65
2021/09/10 07:17:38;;;;;;;12.00;11.10;;;23.10;99.90;;;;;;5051463;28;20444;-66
2021/09/10 07:20:06;;;;;;;11.23;10.33;;;23.10;99.90;;;;;;5051303;28;20455;-66
2021/09/10 07:22:33;;;;;;;12.23;11.33;;;23.10;99.90;;;;;;5051013;28;20464;-65
2021/09/10 07:25:01;;;;;;;19.27;12.27;;;23.10;99.90;;;;;;5051289;28;20447;-64
2021/09/10 07:27:28;;;;;;;13.20;12.00;;;23.20;99.90;;;;;;5051286;28;20938;-65
2021/09/10 07:29:54;;;;;;;10.93;10.20;;;23.20;99.90;;;;;;5051317;28;20440;-65
2021/09/10 07:32:21;;;;;;;12.83;11.50;;;23.20;99.90;;;;;;5051003;28;20457;-66
2021/09/10 07:34:47;;;;;;;11.17;10.40;;;23.30;99.90;;;;;;5051273;28;20447;-65
2021/09/10 07:37:14;;;;;;;12.07;10.93;;;23.30;99.90;;;;;;5051258;28;20444;-64
2021/09/10 07:39:41;;;;;;;12.60;11.60;;;23.30;99.90;;;;;;5051231;28;20808;-66
2021/09/10 07:42:09;;;;;;;13.37;12.27;;;23.40;99.90;;;;;;5050816;28;20484;-66
2021/09/10 07:44:36;;;;;;;13.20;12.20;;;23.40;99.90;;;;;;5051262;28;20802;-66
2021/09/10 07:47:02;;;;;;;14.43;13.00;;;23.40;99.90;;;;;;5051011;28;20455;-66
2021/09/10 07:49:29;;;;;;;13.10;11.97;;;23.40;99.90;;;;;;5050836;28;20447;-65
2021/09/10 07:51:56;;;;;;;11.97;11.00;;;23.60;99.90;;;;;;5050863;28;20954;-66
2021/09/10 07:54:22;;;;;;;11.97;11.13;;;23.70;99.90;;;;;;5051083;28;20451;-65
2021/09/10 07:56:49;;;;;;;14.00;12.60;;;23.90;99.90;;;;;;5053667;28;20452;-64
2021/09/10 07:59:17;;;;;;;12.10;11.30;;;24.00;99.90;;;;;;5054928;28;20459;-65
2021/09/10 08:01:44;;;;;;;14.67;13.50;;;24.20;99.90;;;;;;5054548;28;20476;-64
2021/09/10 08:04:10;;;;;;;12.60;11.50;;;24.30;99.90;;;;;;5054871;28;20444;-65
2021/09/10 08:06:37;;;;;;;12.80;12.00;;;24.30;99.90;;;;;;5054997;28;20440;-65
2021/09/10 08:09:05;;;;;;;13.87;12.73;;;24.30;99.90;;;;;;5054875;28;20440;-64
2021/09/10 08:11:33;;;;;;;14.57;13.47;;;24.40;99.90;;;;;;5054403;28;20443;-65
2021/09/10 08:14:00;;;;;;;13.13;12.33;;;24.50;99.90;;;;;;5054833;28;20448;-64
2021/09/10 08:16:28;;;;;;;12.40;11.63;;;24.50;99.90;;;;;;5054792;28;20507;-65
2021/09/10 08:18:55;;;;;;;13.83;12.70;;;24.50;99.90;;;;;;5054780;28;20451;-65
2021/09/10 08:21:21;;;;;;;12.60;11.53;;;24.40;99.90;;;;;;5054331;28;20476;-64
2021/09/10 08:23:48;;;;;;;11.43;10.77;;;24.30;99.90;;;;;;5054427;28;20463;-63
2021/09/10 08:26:15;;;;;;;11.73;11.03;;;24.20;99.90;;;;;;5054488;28;20444;-65
2021/09/10 08:28:41;;;;;;;12.23;11.33;;;24.10;99.90;;;;;;5054617;28;20443;-65
2021/09/10 08:31:08;;;;;;;11.50;10.80;;;24.10;99.90;;;;;;5054190;28;20440;-66
2021/09/10 08:33:37;;;;;;;11.50;10.90;;;24.20;99.90;;;;;;5054227;28;20463;-66
2021/09/10 08:36:04;;;;;;;12.40;11.70;;;24.20;99.90;;;;;;5054270;28;20444;-65
2021/09/10 08:38:30;;;;;;;12.30;11.30;;;24.20;99.90;;;;;;5054352;28;20459;-66
2021/09/10 08:40:59;;;;;;;12.10;11.30;;;24.40;99.90;;;;;;5053949;28;20484;-63
2021/09/10 08:43:27;;;;;;;12.00;11.20;;;24.40;99.90;;;;;;5053985;28;20472;-65
2021/09/10 08:45:57;;;;;;;13.20;12.40;;;24.70;99.90;;;;;;5054115;28;20450;-66
2021/09/10 08:48:27;;;;;;;12.73;12.10;;;24.70;99.90;;;;;;5054020;28;20946;-66
2021/09/10 08:50:55;;;;;;;13.40;12.50;;;24.70;99.90;;;;;;5053988;28;20444;-61
2021/09/10 08:53:22;;;;;;;12.77;12.13;;;24.80;99.90;;;;;;5053895;28;20507;-64
2021/09/10 08:55:49;;;;;;;12.20;11.70;;;24.80;99.90;;;;;;5053899;28;20452;-66
2021/09/10 08:58:16;;;;;;;13.43;12.63;;;24.90;99.90;;;;;;5053892;28;20457;-65
2021/09/10 09:00:42;;;;;;;12.50;11.83;;;25.00;99.90;;;;;;5053884;28;20440;-66
2021/09/10 09:03:11;;;;;;;13.60;12.60;;;25.20;99.90;;;;;;5053551;28;20467;-65
2021/09/10 09:05:38;;;;;;;14.07;13.37;;;25.30;99.90;;;;;;5053948;28;20945;-66
2021/09/10 09:08:12;;;;;;;14.03;13.33;;;25.50;99.90;;;;;;5053669;28;20444;-66
2021/09/10 09:11:06;;;;;;;15.30;14.50;;;25.80;99.90;;;;;;5053580;28;20590;-65
2021/09/10 09:13:35;;;;;;;15.20;14.40;;;26.00;99.90;;;;;;5006952;28;20490;-66
2021/09/10 09:16:19;;;;;;;14.40;13.90;;;26.40;99.90;;;;;;5053567;28;20451;-65
2021/09/10 09:18:48;;;;;;;16.47;15.43;;;26.70;99.90;;;;;;5053546;28;20447;-66
2021/09/10 09:21:15;;;;;;;17.10;16.00;;;27.00;99.90;;;;;;5053261;28;20850;-66
2021/09/10 09:23:43;;;;;;;15.97;15.17;;;27.40;99.90;;;;;;5053294;28;20543;-66
2021/09/10 09:26:18;;;;;;;16.60;15.90;;;27.60;99.90;;;;;;5053240;28;20436;-65
2021/09/10 09:28:46;;;;;;;17.47;16.57;;;27.80;99.90;;;;;;5053325;28;20447;-65
2021/09/10 09:31:13;;;;;;;17.87;16.67;;;27.80;99.90;;;;;;5052992;28;20448;-65
2021/09/10 09:33:41;;;;;;;17.23;16.43;;;27.90;99.90;;;;;;5053087;28;20471;-66
2021/09/10 09:36:10;;;;;;;17.70;16.90;;;27.80;99.90;;;;;;5052928;28;20443;-66
2021/09/10 09:38:39;;;;;;;18.23;17.20;;;27.70;99.90;;;;;;5053197;28;20463;-65
2021/09/10 09:41:10;;;;;;;19.43;18.53;;;27.60;99.90;;;;;;5052759;28;20478;-65
2021/09/10 09:43:38;;;;;;;18.27;17.37;;;27.30;99.90;;;;;;5052935;28;20468;-66
2021/09/10 09:46:07;;;;;;;19.23;18.23;;;27.20;99.90;;;;;;5052979;28;20441;-66
2021/09/10 09:48:37;;;;;;;18.03;17.23;;;27.00;99.90;;;;;;5053089;28;20450;-66
2021/09/10 09:51:04;;;;;;;18.33;17.53;;;27.00;99.90;;;;;;5052816;28;20448;-65
2021/09/10 09:53:31;;;;;;;18.10;17.20;;;26.90;99.90;;;;;;5052638;28;20471;-66
2021/09/10 09:55:59;;;;;;;18.90;18.07;;;26.70;99.90;;;;;;5052771;28;20477;-64
2021/09/10 09:58:30;;;;;;;19.63;18.53;;;26.50;99.90;;;;;;5052808;28;20543;-64
2021/09/10 10:00:58;;;;;;;18.60;17.77;;;26.20;99.90;;;;;;5052542;28;20566;-64
2021/09/10 10:03:25;;;;;;;18.13;17.23;;;26.00;99.90;;;;;;5052562;28;20464;-65
2021/09/10 10:06:07;;;;;;;18.73;17.60;;;25.90;99.90;;;;;;5053190;28;20448;-66
2021/09/10 10:08:41;;;;;;;16.27;15.67;;;25.60;99.90;;;;;;5052618;28;20447;-65
2021/09/10 10:11:11;;;;;;;18.60;17.80;;;25.20;99.90;;;;;;5052360;28;20451;-66
2021/09/10 10:13:40;;;;;;;17.03;16.33;;;25.00;99.90;;;;;;5075567;22;20483;-56
2021/09/10 10:16:06;;;;;;;17.43;16.43;;;24.90;99.90;;;;;;5072578;28;20447;-54
2021/09/10 10:18:40;;;;;;;18.57;17.77;;;24.70;99.90;;;;;;5071941;28;20448;-60
2021/09/10 10:21:07;;;;;;;16.27;15.63;;;24.50;99.90;;;;;;5072605;28;20848;-57
2021/09/10 10:23:56;;;;;;;18.53;17.33;;;24.20;99.90;;;;;;5072191;28;21003;-59
2021/09/10 10:26:42;;;;;;;17.90;17.00;;;24.00;99.90;;;;;;5072332;28;20450;-59
2021/09/10 10:29:18;;;;;;;19.93;18.73;;;23.90;99.90;;;;;;5072690;28;20451;-59
2021/09/10 10:32:00;;;;;;;18.93;17.83;;;23.80;99.90;;;;;;5072328;28;20528;-58
2021/09/10 10:34:27;;;;;;;18.23;16.70;;;23.80;99.90;;;;;;5072290;28;20447;-58
2021/09/10 10:36:54;;;;;;;17.50;16.50;;;23.70;99.90;;;;;;5072208;28;20817;-61
2021/09/10 10:39:27;;;;;;;17.80;16.73;;;23.70;99.90;;;;;;5072022;28;20447;-59
2021/09/10 10:41:56;;;;;;;17.00;16.10;;;23.60;99.90;;;;;;5071746;28;20483;-58
2021/09/10 10:44:59;;;;;;;17.20;16.30;;;23.50;99.90;;;;;;5072103;28;20915;-61
2021/09/10 10:47:35;;;;;;;15.93;15.03;;;23.60;99.90;;;;;;5072032;28;20442;-60
2021/09/10 10:50:02;;;;;;;15.73;15.03;;;23.80;99.90;;;;;;5072093;28;20931;-57
2021/09/10 10:52:41;;;;;;;15.33;14.60;;;24.10;99.90;;;;;;5071691;28;20521;-58
2021/09/10 10:55:20;;;;;;;16.60;15.70;;;24.70;99.90;;;;;;5071874;28;20447;-59
2021/09/10 10:57:47;;;;;;;16.10;15.30;;;25.50;99.90;;;;;;5071945;28;20635;-59
2021/09/10 11:00:47;;;;;;;16.87;16.10;;;26.30;99.90;;;;;;5071863;28;20497;-57
2021/09/10 11:03:34;;;;;;;16.40;15.67;;;27.10;99.90;;;;;;5071571;28;20479;-59
2021/09/10 11:06:37;;;;;;;18.00;17.00;;;27.80;99.90;;;;;;5071699;28;20450;-57
2021/09/10 11:09:11;;;;;;;18.57;17.63;;;28.30;99.90;;;;;;5071723;28;20443;-58
2021/09/10 11:11:37;;;;;;;19.27;18.30;;;28.60;99.90;;;;;;5071499;28;20435;-60
2021/09/10 11:14:08;;;;;;;19.73;18.73;;;28.70;99.90;;;;;;5071445;28;20479;-61
2021/09/10 11:16:35;;;;;;;18.63;17.93;;;28.90;99.90;;;;;;5071463;28;20943;-59
2021/09/10 11:19:03;;;;;;;20.97;19.50;;;29.10;99.90;;;;;;5071430;28;20447;-59
2021/09/10 11:21:31;;;;;;;19.03;18.30;;;29.30;99.90;;;;;;5071250;28;20448;-61
2021/09/10 11:24:08;;;;;;;20.03;19.03;;;29.30;99.90;;;;;;5071505;28;20467;-59
2021/09/10 11:26:36;;;;;;;20.60;19.70;;;29.50;99.90;;;;;;5071456;28;20454;-59
2021/09/10 11:29:13;;;;;;;20.63;19.80;;;29.90;99.90;;;;;;5071460;28;20477;-60
2021/09/10 11:31:40;;;;;;;21.17;20.37;;;30.80;99.90;;;;;;5073799;28;20438;-58
2021/09/10 11:34:08;;;;;;;21.67;20.90;;;32.60;99.90;;;;;;5075532;28;20458;-59
2021/09/10 11:36:35;;;;;;;21.40;20.60;;;35.10;93.50;;;;;;5075493;28;20439;-60
2021/09/10 11:39:05;;;;;;;21.88;21.05;;;36.50;75.80;;;;;;5075443;28;20451;-60
2021/09/10 11:41:33;;;;;;;22.40;21.50;;;37.80;66.10;;;;;;5075232;28;20232;-61
2021/09/10 11:44:11;;;;;;;22.27;21.38;;;38.40;59.00;;;;;;5075474;28;20621;-60
2021/09/10 11:46:39;;;;;;;23.85;22.33;;;39.00;55.40;;;;;;5075385;28;20196;-59
2021/09/10 11:49:05;;;;;;;23.75;22.77;;;39.40;54.60;;;;;;5075349;28;20200;-59
2021/09/10 11:51:48;;;;;;;23.38;22.52;;;40.70;51.00;;;;;;5074960;28;20211;-59
2021/09/10 11:54:17;;;;;;;24.38;23.38;;;40.30;48.30;;;;;;5075136;28;21387;-61
2021/09/10 11:56:46;;;;;;;22.67;21.88;;;39.20;49.20;;;;;;5075003;28;20223;-61
2021/09/10 11:59:21;;;;;;;23.13;22.15;;;38.00;50.60;;;;;;5075422;28;20585;-59
2021/09/10 12:01:48;;;;;;;23.37;22.27;;;36.10;53.10;;;;;;5074795;28;20269;-59
2021/09/10 12:04:27;;;;;;;23.00;22.00;;;34.30;57.20;;;;;;5075008;28;20220;-58
2021/09/10 12:06:58;;;;;;;22.43;21.53;;;33.30;61.00;;;;;;5074824;28;20438;-59
2021/09/10 12:09:26;;;;;;;22.53;21.63;;;32.50;65.20;;;;;;5074890;28;20442;-60
2021/09/10 12:12:15;;;;;;;23.10;22.20;;;31.80;71.50;;;;;;5074559;28;20478;-59
2021/09/10 12:14:44;;;;;;;23.27;22.10;;;31.00;78.30;;;;;;5049016;28;20529;-60
2021/09/10 12:17:22;;;;;;;22.77;21.70;;;30.10;86.30;;;;;;5042786;28;20972;-59
2021/09/10 12:19:55;;;;;;;22.73;21.83;;;29.40;92.70;;;;;;5042777;28;20454;-61
2021/09/10 12:22:35;;;;;;;21.53;20.63;;;28.90;97.00;;;;;;5040584;28;20511;-60
2021/09/10 12:25:21;;;;;;;21.30;20.40;;;28.40;99.90;;;;;;5022891;28;21013;-61
2021/09/10 12:27:49;;;;;;;22.20;21.30;;;27.60;99.90;;;;;;5022889;28;20460;-60
2021/09/10 12:30:18;;;;;;;21.50;20.70;;;27.20;99.90;;;;;;5022638;28;20457;-60
2021/09/10 12:32:44;;;;;;;22.20;21.20;;;26.90;99.90;;;;;;5026514;28;20923;-59
2021/09/10 12:35:11;;;;;;;22.07;21.00;;;26.50;99.90;;;;;;5042332;28;20440;-61